sensor_id;sensor_type;location;lat;lon;timestamp;P1;durP1;ratioP1;P2;durP2;ratioP2
13927;SDS011;7036;50.834;4.718;2023-02-28T00:00:28;4.25;;;2.50;;
13927;SDS011;7036;50.834;4.718;2023-02-28T00:02:55;4.45;;;2.63;;
13927;SDS011;7036;50.834;4.718;2023-02-28T00:05:23;3.75;;;2.67;;
13927;SDS011;7036;50.834;4.718;2023-02-28T00:07:50;3.53;;;2.85;;
13927;SDS011;7036;50.834;4.718;2023-02-28T00:10:22;4.40;;;2.58;;
13927;SDS011;7036;50.834;4.718;2023-02-28T00:12:47;4.18;;;2.85;;
13927;SDS011;7036;50.834;4.718;2023-02-28T00:15:14;5.05;;;3.00;;
13927;SDS011;7036;50.834;4.718;2023-02-28T00:17:43;4.50;;;2.85;;
13927;SDS011;7036;50.834;4.718;2023-02-28T00:20:11;3.03;;;2.72;;
13927;SDS011;7036;50.834;4.718;2023-02-28T00:22:39;3.80;;;2.92;;
13927;SDS011;7036;50.834;4.718;2023-02-28T00:25:07;5.28;;;2.92;;
13927;SDS011;7036;50.834;4.718;2023-02-28T00:27:35;3.33;;;2.95;;
13927;SDS011;7036;50.834;4.718;2023-02-28T00:30:03;3.90;;;2.78;;
13927;SDS011;7036;50.834;4.718;2023-02-28T00:32:30;3.80;;;2.63;;
13927;SDS011;7036;50.834;4.718;2023-02-28T00:34:57;3.90;;;2.67;;
13927;SDS011;7036;50.834;4.718;2023-02-28T00:37:25;3.53;;;2.80;;
13927;SDS011;7036;50.834;4.718;2023-02-28T00:39:53;3.70;;;2.83;;
13927;SDS011;7036;50.834;4.718;2023-02-28T00:42:21;3.15;;;2.45;;
13927;SDS011;7036;50.834;4.718;2023-02-28T00:44:49;3.47;;;2.42;;
13927;SDS011;7036;50.834;4.718;2023-02-28T00:47:17;3.25;;;2.67;;
13927;SDS011;7036;50.834;4.718;2023-02-28T00:49:45;3.05;;;2.50;;
13927;SDS011;7036;50.834;4.718;2023-02-28T00:52:12;4.78;;;2.70;;
13927;SDS011;7036;50.834;4.718;2023-02-28T00:54:40;4.30;;;2.60;;
13927;SDS011;7036;50.834;4.718;2023-02-28T00:57:08;4.75;;;2.67;;
13927;SDS011;7036;50.834;4.718;2023-02-28T00:59:36;3.53;;;2.75;;
13927;SDS011;7036;50.834;4.718;2023-02-28T01:02:04;2.88;;;2.50;;
13927;SDS011;7036;50.834;4.718;2023-02-28T01:04:31;4.78;;;2.60;;
13927;SDS011;7036;50.834;4.718;2023-02-28T01:07:01;3.78;;;2.70;;
13927;SDS011;7036;50.834;4.718;2023-02-28T01:09:28;3.73;;;2.60;;
13927;SDS011;7036;50.834;4.718;2023-02-28T01:11:56;4.10;;;2.42;;
13927;SDS011;7036;50.834;4.718;2023-02-28T01:14:24;4.15;;;2.78;;
13927;SDS011;7036;50.834;4.718;2023-02-28T01:16:51;4.57;;;2.72;;
13927;SDS011;7036;50.834;4.718;2023-02-28T01:19:18;4.38;;;2.38;;
13927;SDS011;7036;50.834;4.718;2023-02-28T01:21:46;3.05;;;2.63;;
13927;SDS011;7036;50.834;4.718;2023-02-28T01:24:14;4.03;;;2.67;;
13927;SDS011;7036;50.834;4.718;2023-02-28T01:26:43;2.97;;;2.50;;
13927;SDS011;7036;50.834;4.718;2023-02-28T01:29:09;3.10;;;2.73;;
13927;SDS011;7036;50.834;4.718;2023-02-28T01:31:37;3.88;;;2.75;;
13927;SDS011;7036;50.834;4.718;2023-02-28T01:34:06;2.65;;;2.45;;
13927;SDS011;7036;50.834;4.718;2023-02-28T01:36:32;5.27;;;2.33;;
13927;SDS011;7036;50.834;4.718;2023-02-28T01:39:01;2.70;;;2.17;;
13927;SDS011;7036;50.834;4.718;2023-02-28T01:41:29;2.90;;;2.37;;
13927;SDS011;7036;50.834;4.718;2023-02-28T01:44:01;3.65;;;2.42;;
13927;SDS011;7036;50.834;4.718;2023-02-28T01:46:26;3.27;;;2.20;;
13927;SDS011;7036;50.834;4.718;2023-02-28T01:48:57;3.10;;;2.40;;
13927;SDS011;7036;50.834;4.718;2023-02-28T01:51:22;2.93;;;2.63;;
13927;SDS011;7036;50.834;4.718;2023-02-28T01:53:51;3.50;;;2.83;;
13927;SDS011;7036;50.834;4.718;2023-02-28T01:56:20;2.50;;;2.30;;
13927;SDS011;7036;50.834;4.718;2023-02-28T01:58:49;3.65;;;2.83;;
13927;SDS011;7036;50.834;4.718;2023-02-28T02:01:17;2.70;;;2.50;;
13927;SDS011;7036;50.834;4.718;2023-02-28T02:03:45;2.77;;;2.20;;
13927;SDS011;7036;50.834;4.718;2023-02-28T02:06:11;2.93;;;2.63;;
13927;SDS011;7036;50.834;4.718;2023-02-28T02:08:39;3.30;;;2.65;;
13927;SDS011;7036;50.834;4.718;2023-02-28T02:11:07;3.60;;;2.45;;
13927;SDS011;7036;50.834;4.718;2023-02-28T02:19:34;6.13;;;3.00;;
13927;SDS011;7036;50.834;4.718;2023-02-28T02:25:08;2.50;;;2.30;;
13927;SDS011;7036;50.834;4.718;2023-02-28T02:32:44;2.60;;;2.40;;
13927;SDS011;7036;50.834;4.718;2023-02-28T02:35:28;2.43;;;2.23;;
13927;SDS011;7036;50.834;4.718;2023-02-28T02:40:32;2.97;;;2.50;;
13927;SDS011;7036;50.834;4.718;2023-02-28T02:45:47;2.80;;;2.43;;
13927;SDS011;7036;50.834;4.718;2023-02-28T02:48:14;2.60;;;2.30;;
13927;SDS011;7036;50.834;4.718;2023-02-28T02:50:44;3.70;;;2.90;;
13927;SDS011;7036;50.834;4.718;2023-02-28T02:53:10;4.23;;;2.53;;
13927;SDS011;7036;50.834;4.718;2023-02-28T02:55:39;2.70;;;2.50;;
13927;SDS011;7036;50.834;4.718;2023-02-28T02:58:08;3.40;;;2.57;;
13927;SDS011;7036;50.834;4.718;2023-02-28T03:00:40;2.55;;;2.35;;
13927;SDS011;7036;50.834;4.718;2023-02-28T03:03:05;2.47;;;2.23;;
13927;SDS011;7036;50.834;4.718;2023-02-28T03:05:34;3.50;;;2.33;;
13927;SDS011;7036;50.834;4.718;2023-02-28T03:07:59;3.20;;;2.30;;
13927;SDS011;7036;50.834;4.718;2023-02-28T03:10:29;2.70;;;2.38;;
13927;SDS011;7036;50.834;4.718;2023-02-28T03:13:00;2.60;;;2.40;;
13927;SDS011;7036;50.834;4.718;2023-02-28T03:15:48;3.23;;;2.60;;
13927;SDS011;7036;50.834;4.718;2023-02-28T03:26:42;3.63;;;2.63;;
13927;SDS011;7036;50.834;4.718;2023-02-28T03:29:15;2.83;;;2.55;;
13927;SDS011;7036;50.834;4.718;2023-02-28T03:31:47;2.60;;;2.30;;
13927;SDS011;7036;50.834;4.718;2023-02-28T03:34:12;2.90;;;2.60;;
13927;SDS011;7036;50.834;4.718;2023-02-28T03:36:38;2.70;;;2.30;;
13927;SDS011;7036;50.834;4.718;2023-02-28T03:39:09;3.30;;;2.30;;
13927;SDS011;7036;50.834;4.718;2023-02-28T03:41:45;4.15;;;2.28;;
13927;SDS011;7036;50.834;4.718;2023-02-28T03:44:18;3.37;;;2.67;;
13927;SDS011;7036;50.834;4.718;2023-02-28T03:46:48;2.53;;;2.33;;
13927;SDS011;7036;50.834;4.718;2023-02-28T03:49:16;2.63;;;2.30;;
13927;SDS011;7036;50.834;4.718;2023-02-28T03:51:45;3.27;;;2.37;;
13927;SDS011;7036;50.834;4.718;2023-02-28T03:54:14;2.58;;;2.38;;
13927;SDS011;7036;50.834;4.718;2023-02-28T03:56:43;2.50;;;2.30;;
13927;SDS011;7036;50.834;4.718;2023-02-28T03:59:19;2.58;;;2.38;;
13927;SDS011;7036;50.834;4.718;2023-02-28T04:01:45;2.70;;;2.50;;
13927;SDS011;7036;50.834;4.718;2023-02-28T04:04:12;3.75;;;2.47;;
13927;SDS011;7036;50.834;4.718;2023-02-28T04:06:39;3.05;;;2.20;;
13927;SDS011;7036;50.834;4.718;2023-02-28T04:09:07;2.63;;;2.15;;
13927;SDS011;7036;50.834;4.718;2023-02-28T04:11:34;2.97;;;2.22;;
13927;SDS011;7036;50.834;4.718;2023-02-28T04:14:02;2.88;;;2.40;;
13927;SDS011;7036;50.834;4.718;2023-02-28T04:16:29;2.88;;;2.08;;
13927;SDS011;7036;50.834;4.718;2023-02-28T04:18:56;2.72;;;2.47;;
13927;SDS011;7036;50.834;4.718;2023-02-28T04:21:24;3.53;;;2.72;;
13927;SDS011;7036;50.834;4.718;2023-02-28T04:23:52;5.28;;;2.90;;
13927;SDS011;7036;50.834;4.718;2023-02-28T04:26:21;2.85;;;2.38;;
13927;SDS011;7036;50.834;4.718;2023-02-28T04:28:48;2.70;;;2.50;;
13927;SDS011;7036;50.834;4.718;2023-02-28T04:31:15;2.45;;;2.25;;
13927;SDS011;7036;50.834;4.718;2023-02-28T04:33:42;3.22;;;2.55;;
13927;SDS011;7036;50.834;4.718;2023-02-28T04:36:10;3.20;;;2.70;;
13927;SDS011;7036;50.834;4.718;2023-02-28T04:38:38;3.13;;;2.20;;
13927;SDS011;7036;50.834;4.718;2023-02-28T04:41:06;6.00;;;2.75;;
13927;SDS011;7036;50.834;4.718;2023-02-28T04:43:34;2.60;;;2.40;;
13927;SDS011;7036;50.834;4.718;2023-02-28T04:46:03;6.10;;;2.58;;
13927;SDS011;7036;50.834;4.718;2023-02-28T04:48:32;3.20;;;2.60;;
13927;SDS011;7036;50.834;4.718;2023-02-28T04:51:00;4.47;;;2.93;;
13927;SDS011;7036;50.834;4.718;2023-02-28T04:53:27;2.83;;;2.23;;
13927;SDS011;7036;50.834;4.718;2023-02-28T04:55:54;3.60;;;2.47;;
13927;SDS011;7036;50.834;4.718;2023-02-28T04:58:24;2.63;;;2.42;;
13927;SDS011;7036;50.834;4.718;2023-02-28T05:00:50;3.87;;;2.43;;
13927;SDS011;7036;50.834;4.718;2023-02-28T05:03:19;2.67;;;2.47;;
13927;SDS011;7036;50.834;4.718;2023-02-28T05:05:45;4.80;;;3.08;;
13927;SDS011;7036;50.834;4.718;2023-02-28T05:08:13;4.18;;;2.80;;
13927;SDS011;7036;50.834;4.718;2023-02-28T05:10:40;3.60;;;2.80;;
13927;SDS011;7036;50.834;4.718;2023-02-28T05:13:11;3.50;;;2.83;;
13927;SDS011;7036;50.834;4.718;2023-02-28T05:15:36;3.60;;;2.97;;
13927;SDS011;7036;50.834;4.718;2023-02-28T05:18:04;2.75;;;2.35;;
13927;SDS011;7036;50.834;4.718;2023-02-28T05:20:32;3.28;;;2.58;;
13927;SDS011;7036;50.834;4.718;2023-02-28T05:22:59;5.25;;;2.72;;
13927;SDS011;7036;50.834;4.718;2023-02-28T05:25:27;4.18;;;2.78;;
13927;SDS011;7036;50.834;4.718;2023-02-28T05:27:55;4.63;;;3.03;;
13927;SDS011;7036;50.834;4.718;2023-02-28T05:30:24;2.85;;;2.30;;
13927;SDS011;7036;50.834;4.718;2023-02-28T05:32:53;4.70;;;3.42;;
13927;SDS011;7036;50.834;4.718;2023-02-28T05:35:19;3.53;;;2.97;;
13927;SDS011;7036;50.834;4.718;2023-02-28T05:37:47;2.75;;;2.55;;
13927;SDS011;7036;50.834;4.718;2023-02-28T05:40:16;5.30;;;3.38;;
13927;SDS011;7036;50.834;4.718;2023-02-28T05:42:43;4.37;;;3.17;;
13927;SDS011;7036;50.834;4.718;2023-02-28T05:45:12;3.45;;;3.15;;
13927;SDS011;7036;50.834;4.718;2023-02-28T05:47:38;3.20;;;2.90;;
13927;SDS011;7036;50.834;4.718;2023-02-28T05:50:07;5.38;;;2.90;;
13927;SDS011;7036;50.834;4.718;2023-02-28T05:52:34;4.00;;;3.27;;
13927;SDS011;7036;50.834;4.718;2023-02-28T05:55:02;3.33;;;2.75;;
13927;SDS011;7036;50.834;4.718;2023-02-28T05:57:30;3.95;;;3.42;;
13927;SDS011;7036;50.834;4.718;2023-02-28T05:59:58;3.83;;;3.25;;
13927;SDS011;7036;50.834;4.718;2023-02-28T06:02:25;3.08;;;2.78;;
13927;SDS011;7036;50.834;4.718;2023-02-28T06:04:53;3.47;;;3.10;;
13927;SDS011;7036;50.834;4.718;2023-02-28T06:07:21;3.40;;;3.10;;
13927;SDS011;7036;50.834;4.718;2023-02-28T06:09:49;3.33;;;3.00;;
13927;SDS011;7036;50.834;4.718;2023-02-28T06:12:17;3.38;;;3.08;;
13927;SDS011;7036;50.834;4.718;2023-02-28T06:14:45;4.65;;;3.28;;
13927;SDS011;7036;50.834;4.718;2023-02-28T06:17:13;3.60;;;2.92;;
13927;SDS011;7036;50.834;4.718;2023-02-28T06:19:41;5.80;;;3.60;;
13927;SDS011;7036;50.834;4.718;2023-02-28T06:22:09;3.15;;;2.85;;
13927;SDS011;7036;50.834;4.718;2023-02-28T06:24:36;4.05;;;2.67;;
13927;SDS011;7036;50.834;4.718;2023-02-28T06:27:04;3.75;;;3.00;;
13927;SDS011;7036;50.834;4.718;2023-02-28T06:29:33;4.72;;;3.13;;
13927;SDS011;7036;50.834;4.718;2023-02-28T06:32:00;4.55;;;3.55;;
13927;SDS011;7036;50.834;4.718;2023-02-28T06:34:28;5.45;;;3.42;;
13927;SDS011;7036;50.834;4.718;2023-02-28T06:36:56;5.57;;;2.97;;
13927;SDS011;7036;50.834;4.718;2023-02-28T06:39:24;4.80;;;3.08;;
13927;SDS011;7036;50.834;4.718;2023-02-28T06:41:52;5.57;;;3.95;;
13927;SDS011;7036;50.834;4.718;2023-02-28T06:44:20;4.45;;;2.95;;
13927;SDS011;7036;50.834;4.718;2023-02-28T06:46:48;4.75;;;3.50;;
13927;SDS011;7036;50.834;4.718;2023-02-28T06:49:15;3.78;;;3.30;;
13927;SDS011;7036;50.834;4.718;2023-02-28T06:51:43;5.28;;;3.33;;
13927;SDS011;7036;50.834;4.718;2023-02-28T06:54:13;10.10;;;3.53;;
13927;SDS011;7036;50.834;4.718;2023-02-28T06:56:40;3.23;;;2.73;;
13927;SDS011;7036;50.834;4.718;2023-02-28T06:59:08;5.70;;;3.38;;
13927;SDS011;7036;50.834;4.718;2023-02-28T07:01:35;4.75;;;3.65;;
13927;SDS011;7036;50.834;4.718;2023-02-28T07:04:02;5.20;;;3.45;;
13927;SDS011;7036;50.834;4.718;2023-02-28T07:06:30;6.75;;;4.00;;
13927;SDS011;7036;50.834;4.718;2023-02-28T07:08:58;5.72;;;3.30;;
13927;SDS011;7036;50.834;4.718;2023-02-28T07:11:26;4.97;;;3.50;;
13927;SDS011;7036;50.834;4.718;2023-02-28T07:13:56;9.20;;;4.23;;
13927;SDS011;7036;50.834;4.718;2023-02-28T07:16:23;7.80;;;4.23;;
13927;SDS011;7036;50.834;4.718;2023-02-28T07:18:54;4.85;;;3.85;;
13927;SDS011;7036;50.834;4.718;2023-02-28T07:21:21;5.83;;;4.10;;
13927;SDS011;7036;50.834;4.718;2023-02-28T07:23:49;7.13;;;4.20;;
13927;SDS011;7036;50.834;4.718;2023-02-28T07:26:17;6.32;;;3.92;;
13927;SDS011;7036;50.834;4.718;2023-02-28T07:28:46;5.43;;;3.55;;
13927;SDS011;7036;50.834;4.718;2023-02-28T07:31:12;8.32;;;4.55;;
13927;SDS011;7036;50.834;4.718;2023-02-28T07:33:40;6.68;;;4.00;;
13927;SDS011;7036;50.834;4.718;2023-02-28T07:36:08;8.30;;;4.63;;
13927;SDS011;7036;50.834;4.718;2023-02-28T07:38:35;7.75;;;3.83;;
13927;SDS011;7036;50.834;4.718;2023-02-28T07:41:03;10.02;;;4.63;;
13927;SDS011;7036;50.834;4.718;2023-02-28T07:43:30;9.33;;;4.43;;
13927;SDS011;7036;50.834;4.718;2023-02-28T07:46:01;9.52;;;4.68;;
13927;SDS011;7036;50.834;4.718;2023-02-28T07:48:30;8.27;;;3.87;;
13927;SDS011;7036;50.834;4.718;2023-02-28T07:50:57;12.85;;;4.60;;
13927;SDS011;7036;50.834;4.718;2023-02-28T07:53:25;6.97;;;4.10;;
13927;SDS011;7036;50.834;4.718;2023-02-28T07:55:57;7.25;;;4.25;;
13927;SDS011;7036;50.834;4.718;2023-02-28T07:58:23;10.47;;;4.20;;
13927;SDS011;7036;50.834;4.718;2023-02-28T08:00:50;10.45;;;3.70;;
13927;SDS011;7036;50.834;4.718;2023-02-28T08:03:19;7.82;;;4.13;;
13927;SDS011;7036;50.834;4.718;2023-02-28T08:05:46;7.72;;;4.50;;
13927;SDS011;7036;50.834;4.718;2023-02-28T08:08:14;8.15;;;4.45;;
13927;SDS011;7036;50.834;4.718;2023-02-28T08:10:41;7.47;;;4.07;;
13927;SDS011;7036;50.834;4.718;2023-02-28T08:13:09;10.57;;;3.67;;
13927;SDS011;7036;50.834;4.718;2023-02-28T08:15:36;6.72;;;4.13;;
13927;SDS011;7036;50.834;4.718;2023-02-28T08:18:04;6.00;;;4.55;;
13927;SDS011;7036;50.834;4.718;2023-02-28T08:20:31;4.75;;;3.85;;
13927;SDS011;7036;50.834;4.718;2023-02-28T08:22:59;5.20;;;3.58;;
13927;SDS011;7036;50.834;4.718;2023-02-28T08:25:27;6.88;;;4.18;;
13927;SDS011;7036;50.834;4.718;2023-02-28T08:27:55;5.40;;;3.75;;
13927;SDS011;7036;50.834;4.718;2023-02-28T08:30:22;11.45;;;3.97;;
13927;SDS011;7036;50.834;4.718;2023-02-28T08:32:50;9.77;;;3.97;;
13927;SDS011;7036;50.834;4.718;2023-02-28T08:35:18;7.32;;;4.30;;
13927;SDS011;7036;50.834;4.718;2023-02-28T08:37:47;8.88;;;3.90;;
13927;SDS011;7036;50.834;4.718;2023-02-28T08:40:13;8.35;;;4.30;;
13927;SDS011;7036;50.834;4.718;2023-02-28T08:42:41;8.63;;;4.20;;
13927;SDS011;7036;50.834;4.718;2023-02-28T08:45:09;6.55;;;4.32;;
13927;SDS011;7036;50.834;4.718;2023-02-28T08:47:37;8.20;;;4.20;;
13927;SDS011;7036;50.834;4.718;2023-02-28T08:50:03;11.97;;;3.97;;
13927;SDS011;7036;50.834;4.718;2023-02-28T08:52:31;6.35;;;3.65;;
13927;SDS011;7036;50.834;4.718;2023-02-28T08:54:59;8.70;;;3.80;;
13927;SDS011;7036;50.834;4.718;2023-02-28T08:57:27;8.48;;;3.75;;
13927;SDS011;7036;50.834;4.718;2023-02-28T08:59:54;8.05;;;3.60;;
13927;SDS011;7036;50.834;4.718;2023-02-28T09:02:22;6.65;;;3.38;;
13927;SDS011;7036;50.834;4.718;2023-02-28T09:04:50;10.50;;;3.55;;
13927;SDS011;7036;50.834;4.718;2023-02-28T09:07:18;8.80;;;3.50;;
13927;SDS011;7036;50.834;4.718;2023-02-28T09:09:46;4.80;;;3.38;;
13927;SDS011;7036;50.834;4.718;2023-02-28T09:12:22;6.87;;;3.20;;
13927;SDS011;7036;50.834;4.718;2023-02-28T09:14:49;6.18;;;3.28;;
13927;SDS011;7036;50.834;4.718;2023-02-28T09:17:16;8.10;;;3.55;;
13927;SDS011;7036;50.834;4.718;2023-02-28T09:19:44;6.32;;;3.08;;
13927;SDS011;7036;50.834;4.718;2023-02-28T09:22:12;6.88;;;3.45;;
13927;SDS011;7036;50.834;4.718;2023-02-28T09:24:40;6.55;;;3.15;;
13927;SDS011;7036;50.834;4.718;2023-02-28T09:27:08;4.35;;;3.28;;
13927;SDS011;7036;50.834;4.718;2023-02-28T09:29:36;5.95;;;2.92;;
13927;SDS011;7036;50.834;4.718;2023-02-28T09:32:03;6.13;;;3.40;;
13927;SDS011;7036;50.834;4.718;2023-02-28T09:34:31;5.80;;;2.67;;
13927;SDS011;7036;50.834;4.718;2023-02-28T09:36:59;4.75;;;2.92;;
13927;SDS011;7036;50.834;4.718;2023-02-28T09:39:27;7.75;;;3.08;;
13927;SDS011;7036;50.834;4.718;2023-02-28T09:41:55;6.00;;;3.15;;
13927;SDS011;7036;50.834;4.718;2023-02-28T09:46:57;9.33;;;3.10;;
13927;SDS011;7036;50.834;4.718;2023-02-28T09:49:23;4.40;;;3.00;;
13927;SDS011;7036;50.834;4.718;2023-02-28T09:51:53;5.93;;;2.70;;
13927;SDS011;7036;50.834;4.718;2023-02-28T09:54:21;8.27;;;2.83;;
13927;SDS011;7036;50.834;4.718;2023-02-28T09:56:52;5.28;;;2.53;;
13927;SDS011;7036;50.834;4.718;2023-02-28T09:59:31;6.20;;;2.43;;
13927;SDS011;7036;50.834;4.718;2023-02-28T10:02:17;4.77;;;2.60;;
13927;SDS011;7036;50.834;4.718;2023-02-28T10:10:22;2.83;;;2.30;;
13927;SDS011;7036;50.834;4.718;2023-02-28T10:12:56;4.27;;;2.57;;
13927;SDS011;7036;50.834;4.718;2023-02-28T10:15:24;3.67;;;2.72;;
13927;SDS011;7036;50.834;4.718;2023-02-28T10:17:51;6.18;;;2.85;;
13927;SDS011;7036;50.834;4.718;2023-02-28T10:20:19;4.32;;;2.88;;
13927;SDS011;7036;50.834;4.718;2023-02-28T10:25:27;6.20;;;2.80;;
13927;SDS011;7036;50.834;4.718;2023-02-28T10:27:53;4.13;;;2.20;;
13927;SDS011;7036;50.834;4.718;2023-02-28T10:30:20;4.55;;;2.55;;
13927;SDS011;7036;50.834;4.718;2023-02-28T10:32:52;4.22;;;2.40;;
13927;SDS011;7036;50.834;4.718;2023-02-28T10:35:19;6.50;;;2.67;;
13927;SDS011;7036;50.834;4.718;2023-02-28T10:37:47;3.42;;;2.63;;
13927;SDS011;7036;50.834;4.718;2023-02-28T10:43:00;7.70;;;3.03;;
13927;SDS011;7036;50.834;4.718;2023-02-28T10:45:26;4.70;;;2.20;;
13927;SDS011;7036;50.834;4.718;2023-02-28T10:47:54;9.15;;;2.47;;
13927;SDS011;7036;50.834;4.718;2023-02-28T10:50:42;9.03;;;2.43;;
13927;SDS011;7036;50.834;4.718;2023-02-28T10:55:38;3.03;;;2.28;;
13927;SDS011;7036;50.834;4.718;2023-02-28T10:58:28;9.20;;;2.67;;
13927;SDS011;7036;50.834;4.718;2023-02-28T11:00:48;3.60;;;2.30;;
13927;SDS011;7036;50.834;4.718;2023-02-28T11:03:25;11.75;;;2.78;;
13927;SDS011;7036;50.834;4.718;2023-02-28T11:05:56;10.17;;;2.60;;
13927;SDS011;7036;50.834;4.718;2023-02-28T11:08:23;3.33;;;1.80;;
13927;SDS011;7036;50.834;4.718;2023-02-28T11:10:55;5.15;;;2.45;;
13927;SDS011;7036;50.834;4.718;2023-02-28T11:13:21;9.60;;;2.50;;
13927;SDS011;7036;50.834;4.718;2023-02-28T11:15:51;3.63;;;2.17;;
13927;SDS011;7036;50.834;4.718;2023-02-28T11:18:20;6.07;;;1.97;;
13927;SDS011;7036;50.834;4.718;2023-02-28T11:20:50;9.45;;;3.20;;
13927;SDS011;7036;50.834;4.718;2023-02-28T11:23:16;9.13;;;2.33;;
13927;SDS011;7036;50.834;4.718;2023-02-28T11:25:47;4.70;;;2.33;;
13927;SDS011;7036;50.834;4.718;2023-02-28T11:28:24;4.40;;;2.30;;
13927;SDS011;7036;50.834;4.718;2023-02-28T11:36:09;4.22;;;1.92;;
13927;SDS011;7036;50.834;4.718;2023-02-28T11:38:33;3.97;;;2.15;;
13927;SDS011;7036;50.834;4.718;2023-02-28T11:41:06;3.30;;;2.17;;
13927;SDS011;7036;50.834;4.718;2023-02-28T11:43:46;2.97;;;1.50;;
13927;SDS011;7036;50.834;4.718;2023-02-28T11:46:13;3.60;;;1.93;;
13927;SDS011;7036;50.834;4.718;2023-02-28T11:48:54;4.23;;;1.77;;
13927;SDS011;7036;50.834;4.718;2023-02-28T11:51:24;3.40;;;1.80;;
13927;SDS011;7036;50.834;4.718;2023-02-28T11:54:12;3.75;;;1.95;;
13927;SDS011;7036;50.834;4.718;2023-02-28T11:56:44;2.50;;;1.77;;
13927;SDS011;7036;50.834;4.718;2023-02-28T11:59:15;3.97;;;1.70;;
13927;SDS011;7036;50.834;4.718;2023-02-28T12:01:43;3.10;;;1.87;;
13927;SDS011;7036;50.834;4.718;2023-02-28T12:07:03;2.57;;;1.50;;
13927;SDS011;7036;50.834;4.718;2023-02-28T12:09:36;4.00;;;1.57;;
13927;SDS011;7036;50.834;4.718;2023-02-28T12:15:16;6.03;;;1.80;;
13927;SDS011;7036;50.834;4.718;2023-02-28T12:17:58;2.30;;;1.20;;
13927;SDS011;7036;50.834;4.718;2023-02-28T12:20:39;3.40;;;1.50;;
13927;SDS011;7036;50.834;4.718;2023-02-28T12:25:58;2.70;;;1.60;;
13927;SDS011;7036;50.834;4.718;2023-02-28T12:28:32;4.60;;;1.63;;
13927;SDS011;7036;50.834;4.718;2023-02-28T12:31:40;2.30;;;1.67;;
13927;SDS011;7036;50.834;4.718;2023-02-28T12:33:36;3.17;;;1.60;;
13927;SDS011;7036;50.834;4.718;2023-02-28T12:36:05;1.63;;;1.48;;
13927;SDS011;7036;50.834;4.718;2023-02-28T12:38:35;2.28;;;1.75;;
13927;SDS011;7036;50.834;4.718;2023-02-28T12:41:03;2.92;;;1.50;;
13927;SDS011;7036;50.834;4.718;2023-02-28T12:43:41;2.20;;;1.40;;
13927;SDS011;7036;50.834;4.718;2023-02-28T12:46:12;2.50;;;1.33;;
13927;SDS011;7036;50.834;4.718;2023-02-28T12:48:41;3.67;;;1.60;;
13927;SDS011;7036;50.834;4.718;2023-02-28T12:51:07;2.60;;;1.58;;
13927;SDS011;7036;50.834;4.718;2023-02-28T12:53:38;2.25;;;1.35;;
13927;SDS011;7036;50.834;4.718;2023-02-28T12:58:50;3.47;;;1.20;;
13927;SDS011;7036;50.834;4.718;2023-02-28T13:01:36;7.22;;;1.60;;
13927;SDS011;7036;50.834;4.718;2023-02-28T13:09:57;5.40;;;1.60;;
13927;SDS011;7036;50.834;4.718;2023-02-28T13:12:23;3.93;;;1.40;;
13927;SDS011;7036;50.834;4.718;2023-02-28T13:14:50;5.03;;;2.00;;
13927;SDS011;7036;50.834;4.718;2023-02-28T13:17:19;2.33;;;1.70;;
13927;SDS011;7036;50.834;4.718;2023-02-28T13:22:20;2.77;;;1.40;;
13927;SDS011;7036;50.834;4.718;2023-02-28T13:24:50;3.25;;;1.10;;
13927;SDS011;7036;50.834;4.718;2023-02-28T13:27:24;3.13;;;1.67;;
13927;SDS011;7036;50.834;4.718;2023-02-28T13:29:49;3.37;;;1.33;;
13927;SDS011;7036;50.834;4.718;2023-02-28T13:39:50;4.90;;;1.40;;
13927;SDS011;7036;50.834;4.718;2023-02-28T13:47:38;3.70;;;1.30;;
13927;SDS011;7036;50.834;4.718;2023-02-28T13:50:43;2.40;;;1.15;;
13927;SDS011;7036;50.834;4.718;2023-02-28T13:52:44;3.53;;;1.63;;
13927;SDS011;7036;50.834;4.718;2023-02-28T13:55:19;3.53;;;1.07;;
13927;SDS011;7036;50.834;4.718;2023-02-28T13:57:48;2.87;;;1.20;;
13927;SDS011;7036;50.834;4.718;2023-02-28T14:05:46;4.87;;;1.30;;
13927;SDS011;7036;50.834;4.718;2023-02-28T14:08:16;2.08;;;1.25;;
13927;SDS011;7036;50.834;4.718;2023-02-28T14:10:42;1.50;;;1.20;;
13927;SDS011;7036;50.834;4.718;2023-02-28T14:13:54;2.22;;;1.30;;
13927;SDS011;7036;50.834;4.718;2023-02-28T14:15:46;4.20;;;1.40;;
13927;SDS011;7036;50.834;4.718;2023-02-28T14:18:17;2.47;;;1.13;;
13927;SDS011;7036;50.834;4.718;2023-02-28T14:20:42;5.10;;;1.63;;
13927;SDS011;7036;50.834;4.718;2023-02-28T14:23:12;2.45;;;1.33;;
13927;SDS011;7036;50.834;4.718;2023-02-28T14:25:40;7.53;;;1.50;;
13927;SDS011;7036;50.834;4.718;2023-02-28T14:31:23;1.87;;;1.20;;
13927;SDS011;7036;50.834;4.718;2023-02-28T14:36:26;1.20;;;1.10;;
13927;SDS011;7036;50.834;4.718;2023-02-28T14:38:52;2.10;;;1.40;;
13927;SDS011;7036;50.834;4.718;2023-02-28T14:41:23;1.77;;;1.13;;
13927;SDS011;7036;50.834;4.718;2023-02-28T14:43:48;2.05;;;1.00;;
13927;SDS011;7036;50.834;4.718;2023-02-28T14:46:15;3.88;;;1.35;;
13927;SDS011;7036;50.834;4.718;2023-02-28T14:48:44;3.97;;;1.27;;
13927;SDS011;7036;50.834;4.718;2023-02-28T14:51:11;2.03;;;1.45;;
13927;SDS011;7036;50.834;4.718;2023-02-28T14:53:38;1.35;;;1.02;;
13927;SDS011;7036;50.834;4.718;2023-02-28T14:56:17;1.48;;;1.20;;
13927;SDS011;7036;50.834;4.718;2023-02-28T14:58:34;1.23;;;1.13;;
13927;SDS011;7036;50.834;4.718;2023-02-28T15:01:02;2.13;;;1.27;;
13927;SDS011;7036;50.834;4.718;2023-02-28T15:03:31;2.03;;;1.30;;
13927;SDS011;7036;50.834;4.718;2023-02-28T15:05:59;2.75;;;1.20;;
13927;SDS011;7036;50.834;4.718;2023-02-28T15:08:25;2.00;;;1.20;;
13927;SDS011;7036;50.834;4.718;2023-02-28T15:10:54;6.57;;;1.38;;
13927;SDS011;7036;50.834;4.718;2023-02-28T15:13:22;2.37;;;1.43;;
13927;SDS011;7036;50.834;4.718;2023-02-28T15:15:51;2.33;;;1.35;;
13927;SDS011;7036;50.834;4.718;2023-02-28T15:21:07;3.17;;;1.17;;
13927;SDS011;7036;50.834;4.718;2023-02-28T15:23:34;1.60;;;1.13;;
13927;SDS011;7036;50.834;4.718;2023-02-28T15:26:01;9.80;;;1.90;;
13927;SDS011;7036;50.834;4.718;2023-02-28T15:28:29;4.63;;;1.83;;
13927;SDS011;7036;50.834;4.718;2023-02-28T15:30:58;4.95;;;1.45;;
13927;SDS011;7036;50.834;4.718;2023-02-28T15:33:26;2.47;;;1.50;;
13927;SDS011;7036;50.834;4.718;2023-02-28T15:36:03;5.32;;;1.40;;
13927;SDS011;7036;50.834;4.718;2023-02-28T15:38:25;6.15;;;1.77;;
13927;SDS011;7036;50.834;4.718;2023-02-28T15:40:52;3.27;;;1.43;;
13927;SDS011;7036;50.834;4.718;2023-02-28T15:43:25;3.00;;;1.40;;
13927;SDS011;7036;50.834;4.718;2023-02-28T15:46:10;2.67;;;1.47;;
13927;SDS011;7036;50.834;4.718;2023-02-28T15:48:37;2.40;;;1.00;;
13927;SDS011;7036;50.834;4.718;2023-02-28T15:53:56;2.53;;;1.50;;
13927;SDS011;7036;50.834;4.718;2023-02-28T15:56:24;3.33;;;1.50;;
13927;SDS011;7036;50.834;4.718;2023-02-28T15:59:03;11.03;;;2.03;;
13927;SDS011;7036;50.834;4.718;2023-02-28T16:01:30;2.67;;;1.67;;
13927;SDS011;7036;50.834;4.718;2023-02-28T16:03:59;2.45;;;1.00;;
13927;SDS011;7036;50.834;4.718;2023-02-28T16:06:38;2.90;;;1.40;;
13927;SDS011;7036;50.834;4.718;2023-02-28T16:09:05;5.10;;;1.60;;
13927;SDS011;7036;50.834;4.718;2023-02-28T16:11:32;2.13;;;1.55;;
13927;SDS011;7036;50.834;4.718;2023-02-28T16:14:00;7.22;;;1.42;;
13927;SDS011;7036;50.834;4.718;2023-02-28T16:16:28;2.25;;;1.20;;
13927;SDS011;7036;50.834;4.718;2023-02-28T16:18:56;1.40;;;1.30;;
13927;SDS011;7036;50.834;4.718;2023-02-28T16:21:24;1.67;;;1.42;;
13927;SDS011;7036;50.834;4.718;2023-02-28T16:23:51;1.60;;;1.30;;
13927;SDS011;7036;50.834;4.718;2023-02-28T16:26:20;4.50;;;1.60;;
13927;SDS011;7036;50.834;4.718;2023-02-28T16:28:47;4.55;;;1.80;;
13927;SDS011;7036;50.834;4.718;2023-02-28T16:31:14;2.47;;;1.25;;
13927;SDS011;7036;50.834;4.718;2023-02-28T16:33:44;3.67;;;1.50;;
13927;SDS011;7036;50.834;4.718;2023-02-28T16:36:14;1.73;;;1.10;;
13927;SDS011;7036;50.834;4.718;2023-02-28T16:38:39;4.77;;;1.67;;
13927;SDS011;7036;50.834;4.718;2023-02-28T16:41:06;2.10;;;1.20;;
13927;SDS011;7036;50.834;4.718;2023-02-28T16:43:33;1.50;;;1.33;;
13927;SDS011;7036;50.834;4.718;2023-02-28T16:46:00;2.75;;;1.50;;
13927;SDS011;7036;50.834;4.718;2023-02-28T16:48:28;3.40;;;1.40;;